Portada
METAR-TAF:

METAR-TAF

Aeroports :

Alofi, Niue

latitud: 19-04S, longitud: 169-55W, altitud: 20 m

Observació

L'informe es va fer fa 54 minuts, a les 11:00 UTC
Vent 2 kt del Sud/Sud-Est
Temperatura 20°C
Humitat 94%
Pressió 1016 hPa
Visibilitat 10 km o més
Núvols disperses a una alçada de 1800 ft

METAR: NIUE 251100Z 15002KT 9999 SCT018 20/19 Q1016 RMKS: DEW ON GRASS

Hora: 00:54 (11:54 UTC)


TAF: manca

Observacions i pronòstics meteorològics de més de 4000 aeroports (METAR i TAF).

Les estacions disponibles són els punts grocs i vermells al mapa.

Posi el ratolí al punt desitjat per veure el nom de l'estació.

Feu clic per veure les observacions i els pronòstics meteorològics.

Per canviar el mapa: feu clic els botons verds amb una creu de color negre per apropar; al botó verd amb un guió per allunyar la imatge; o en les fletxes verdes per a mapes adjacents.


METAR-TAF: